Time;durP1;ratioP1;P1;durP2;ratioP2;P2;SDS_P1;SDS_P2;PMS_P1;PMS_P2;Temp;Humidity;BMP_temperature;BMP_pressure;BME280_temperature;BME280_humidity;BME280_pressure;Samples;Min_cycle;Max_cycle;Signal;HPM_P1;HPM_P2
2024/02/05 00:01:59;;;;;;;;;;;;;;;6.36;97.71;97488.88;108869;1259;61286;-68
2024/02/05 00:04:27;;;;;;;;;;;;;;;6.25;98.32;97483.45;108971;1257;76024;-68
2024/02/05 00:06:55;;;;;;;;;;;;;;;6.22;98.42;97492.06;109171;1256;70922;-68
2024/02/05 00:09:22;;;;;;;;;;;;;;;6.01;99.31;97478.34;109091;1256;74758;-68
2024/02/05 00:11:50;;;;;;;;;;;;;;;6.27;98.03;97486.87;109115;1257;60378;-68
2024/02/05 00:14:17;;;;;;;;;;;;;;;6.26;97.81;97481.60;109101;1257;61434;-68
2024/02/05 00:16:45;;;;;;;;;;;;;;;6.18;98.42;97482.98;109196;1256;76375;-68
2024/02/05 00:19:12;;;;;;;;;;;;;;;6.17;97.94;97479.79;109150;1257;67903;-69
2024/02/05 00:21:40;;;;;;;;;;;;;;;6.19;97.93;97476.89;109289;1254;73803;-67
2024/02/05 00:24:07;;;;;;;;;;;;;;;6.41;96.68;97475.80;109227;1256;59984;-68
2024/02/05 00:26:35;;;;;;;;;;;;;;;6.36;96.48;97475.77;109352;1255;59362;-68
2024/02/05 00:29:05;;;;;;;;;;;;;;;6.34;96.44;97469.77;109363;1256;76025;-68
2024/02/05 00:31:32;;;;;;;;;;;;;;;6.45;96.19;97464.47;109338;1255;67956;-68
2024/02/05 00:34:00;;;;;;;;;;;;;;;6.36;96.12;97446.85;109371;1256;74025;-68
2024/02/05 00:36:27;;;;;;;;;;;;;;;6.32;96.18;97440.64;109361;1256;59575;-68
2024/02/05 00:38:55;;;;;;;;;;;;;;;6.47;95.21;97440.15;109197;1255;60883;-68
2024/02/05 00:41:22;;;;;;;;;;;;;;;6.43;95.19;97424.84;109167;1257;76866;-68
2024/02/05 00:43:50;;;;;;;;;;;;;;;6.29;96.22;97433.84;109142;1256;69964;-68
2024/02/05 00:46:23;;;;;;;;;;;;;;;6.55;94.99;97434.70;109199;1256;73207;-68
2024/02/05 00:48:51;;;;;;;;;;;;;;;6.51;94.46;97429.52;109336;1256;58949;-67
2024/02/05 00:51:18;;;;;;;;;;;;;;;6.45;95.19;97429.56;109318;1254;59064;-69
2024/02/05 00:53:49;;;;;;;;;;;;;;;6.46;94.68;97412.02;109329;1254;76066;-69
2024/02/05 00:56:17;;;;;;;;;;;;;;;6.35;95.34;97408.48;109341;1254;68203;-68
2024/02/05 00:58:45;;;;;;;;;;;;;;;6.39;95.45;97412.55;109313;1254;74053;-69
2024/02/05 01:01:12;;;;;;;;;;;;;;;6.47;94.66;97408.80;109158;1257;59709;-68
2024/02/05 01:03:42;;;;;;;;;;;;;;;6.41;94.91;97410.19;109350;1254;58913;-68
2024/02/05 01:06:10;;;;;;;;;;;;;;;6.27;95.73;97403.75;109295;1254;72980;-68
2024/02/05 01:08:38;;;;;;;;;;;;;;;6.34;95.18;97403.80;109366;1253;69279;-68
2024/02/05 01:11:06;;;;;;;;;;;;;;;6.31;95.20;97402.66;109463;1253;74948;-68
2024/02/05 01:13:33;;;;;;;;;;;;;;;6.19;95.70;97393.95;109551;1253;60525;-67
2024/02/05 01:16:02;;;;;;;;;;;;;;;6.27;95.29;97395.64;109610;1253;60898;-68
2024/02/05 01:18:30;;;;;;;;;;;;;;;5.78;97.56;97392.41;109586;1253;73742;-68
2024/02/05 01:20:58;;;;;;;;;;;;;;;5.32;100.00;97391.53;109246;1253;69736;-68
2024/02/05 01:23:26;;;;;;;;;;;;;;;5.51;100.00;97383.51;109580;1252;74993;-68
2024/02/05 01:25:54;;;;;;;;;;;;;;;5.99;98.24;97372.59;109600;1253;60067;-68
2024/02/05 01:28:21;;;;;;;;;;;;;;;5.97;97.87;97367.51;109222;1253;59335;-68
2024/02/05 01:30:49;;;;;;;;;;;;;;;5.89;98.27;97357.60;109640;1253;73341;-69
2024/02/05 01:33:16;;;;;;;;;;;;;;;5.87;98.34;97350.41;109593;1253;66588;-68
2024/02/05 01:35:44;;;;;;;;;;;;;;;6.11;96.93;97346.27;109596;1253;73657;-69
2024/02/05 01:38:12;;;;;;;;;;;;;;;6.28;95.74;97344.81;109561;1253;61937;-68
2024/02/05 01:40:39;;;;;;;;;;;;;;;6.18;95.63;97344.67;109433;1253;60822;-68
2024/02/05 01:43:07;;;;;;;;;;;;;;;6.32;94.81;97340.56;109607;1253;74499;-68
2024/02/05 01:45:34;;;;;;;;;;;;;;;6.35;94.47;97353.38;109569;1253;70764;-67
2024/02/05 01:48:03;;;;;;;;;;;;;;;6.29;94.40;97348.80;109524;1253;73564;-68
2024/02/05 01:50:31;;;;;;;;;;;;;;;6.35;93.92;97345.76;109219;1256;59464;-68
2024/02/05 01:52:58;;;;;;;;;;;;;;;6.27;94.15;97340.77;109150;1257;60236;-68
2024/02/05 01:55:26;;;;;;;;;;;;;;;6.43;93.20;97340.62;109204;1256;74495;-68
2024/02/05 01:57:55;;;;;;;;;;;;;;;6.32;93.36;97326.06;109153;1257;66974;-68
2024/02/05 02:00:25;;;;;;;;;;;;;;;6.45;92.49;97338.73;109081;1257;73773;-68
2024/02/05 02:02:53;;;;;;;;;;;;;;;6.44;92.28;97331.56;109134;1257;61882;-68
2024/02/05 02:05:20;;;;;;;;;;;;;;;6.49;91.57;97327.14;109157;1256;59115;-68
2024/02/05 02:07:48;;;;;;;;;;;;;;;6.52;91.17;97316.86;109135;1256;76877;-67
2024/02/05 02:10:15;;;;;;;;;;;;;;;6.38;91.62;97324.89;109138;1257;69099;-68
2024/02/05 02:12:43;;;;;;;;;;;;;;;6.39;91.07;97324.89;109126;1257;74889;-68
2024/02/05 02:15:12;;;;;;;;;;;;;;;6.46;90.37;97321.46;109064;1257;60410;-68
2024/02/05 02:17:40;;;;;;;;;;;;;;;6.47;90.18;97320.34;109122;1256;61331;-68
2024/02/05 02:20:08;;;;;;;;;;;;;;;6.50;90.09;97323.88;109112;1257;76832;-68
2024/02/05 02:22:39;;;;;;;;;;;;;;;6.42;90.49;97300.92;109407;1253;69023;-68
2024/02/05 02:25:06;;;;;;;;;;;;;;;6.46;90.51;97319.28;109478;1254;71198;-67
2024/02/05 02:27:34;;;;;;;;;;;;;;;6.32;90.81;97305.45;109561;1253;60296;-66
2024/02/05 02:30:02;;;;;;;;;;;;;;;6.41;90.25;97301.27;109590;1253;59747;-68
2024/02/05 02:32:33;;;;;;;;;;;;;;;6.38;90.14;97300.11;109622;1253;73967;-68
2024/02/05 02:35:06;;;;;;;;;;;;;;;6.41;89.44;97291.14;109343;1253;69169;-68
2024/02/05 02:37:35;;;;;;;;;;;;;;;6.16;90.85;97302.06;109230;1254;74303;-68
2024/02/05 02:40:05;;;;;;;;;;;;;;;6.18;90.96;97299.34;109361;1253;61925;-68
2024/02/05 02:42:33;;;;;;;;;;;;;;;6.32;89.89;97299.73;109494;1253;59611;-68
2024/02/05 02:45:01;;;;;;;;;;;;;;;6.21;90.13;97289.18;109478;1254;75172;-68
2024/02/05 02:47:28;;;;;;;;;;;;;;;6.25;89.90;97294.02;109544;1253;69328;-67
2024/02/05 02:49:56;;;;;;;;;;;;;;;6.34;89.21;97289.08;109224;1253;73464;-68
2024/02/05 02:52:23;;;;;;;;;;;;;;;6.32;88.86;97275.65;109361;1253;63144;-68
2024/02/05 02:54:51;;;;;;;;;;;;;;;6.40;88.08;97284.96;109114;1253;60590;-69
2024/02/05 02:57:18;;;;;;;;;;;;;;;6.24;88.97;97290.65;109388;1253;75012;-67
2024/02/05 02:59:46;;;;;;;;;;;;;;;6.09;90.02;97297.02;109432;1253;67770;-68
2024/02/05 03:02:13;;;;;;;;;;;;;;;6.19;89.34;97294.00;109389;1253;71528;-68
2024/02/05 03:04:41;;;;;;;;;;;;;;;6.12;89.95;97292.26;109364;1253;61887;-68
2024/02/05 03:07:09;;;;;;;;;;;;;;;6.11;89.89;97283.05;109404;1253;61128;-68
2024/02/05 03:09:36;;;;;;;;;;;;;;;6.29;88.96;97284.54;109447;1253;74523;-68
2024/02/05 03:12:04;;;;;;;;;;;;;;;6.41;88.17;97291.77;109455;1254;68250;-68
2024/02/05 03:14:31;;;;;;;;;;;;;;;6.53;87.24;97287.06;109455;1254;72213;-68
2024/02/05 03:16:59;;;;;;;;;;;;;;;6.59;86.85;97284.02;109470;1253;62005;-68
2024/02/05 03:19:27;;;;;;;;;;;;;;;6.52;87.21;97288.73;109450;1253;59611;-68
2024/02/05 03:21:56;;;;;;;;;;;;;;;6.75;87.13;97291.14;109486;1252;74164;-68
2024/02/05 03:24:23;;;;;;;;;;;;;;;6.92;87.13;97292.34;109462;1254;71062;-68
2024/02/05 03:26:51;;;;;;;;;;;;;;;6.71;89.81;97294.98;109128;1254;75036;-69
2024/02/05 03:29:18;;;;;;;;;;;;;;;6.62;91.63;97302.21;109459;1254;60055;-68
2024/02/05 03:31:46;;;;;;;;;;;;;;;6.52;93.41;97317.71;109495;1254;61163;-68
2024/02/05 03:34:14;;;;;;;;;;;;;;;6.34;96.74;97330.95;109484;1254;73203;-69
2024/02/05 03:36:42;;;;;;;;;;;;;;;5.87;99.85;97340.88;109198;1252;67312;-68
2024/02/05 03:39:09;;;;;;;;;;;;;;;5.82;100.00;97343.84;109486;1253;73743;-69
2024/02/05 03:41:37;;;;;;;;;;;;;;;5.52;100.00;97351.58;109471;1253;61850;-68
2024/02/05 03:44:04;;;;;;;;;;;;;;;5.38;100.00;97344.26;109463;1254;61850;-68
2024/02/05 03:46:32;;;;;;;;;;;;;;;5.26;100.00;97330.33;109466;1253;77424;-68
2024/02/05 03:49:00;;;;;;;;;;;;;;;5.32;100.00;97328.11;109426;1253;67672;-67
2024/02/05 03:51:28;;;;;;;;;;;;;;;5.41;100.00;97328.39;109432;1254;73480;-66
2024/02/05 03:53:55;;;;;;;;;;;;;;;5.21;100.00;97337.15;109155;1253;62408;-65
2024/02/05 03:56:23;;;;;;;;;;;;;;;5.24;100.00;97326.03;109488;1253;60599;-66
2024/02/05 03:58:50;;;;;;;;;;;;;;;5.35;100.00;97320.49;109486;1253;73205;-66
2024/02/05 04:01:18;;;;;;;;;;;;;;;5.29;100.00;97308.08;109443;1253;69401;-64
2024/02/05 04:03:46;;;;;;;;;;;;;;;5.38;100.00;97289.40;109175;1253;73252;-66
2024/02/05 04:06:13;;;;;;;;;;;;;;;5.29;100.00;97312.34;109464;1253;59018;-65
2024/02/05 04:08:41;;;;;;;;;;;;;;;5.31;100.00;97299.39;109456;1253;59148;-65
2024/02/05 04:11:08;;;;;;;;;;;;;;;5.27;100.00;97290.21;109549;1253;73378;-65
2024/02/05 04:13:36;;;;;;;;;;;;;;;5.07;100.00;97286.10;109450;1252;71097;-66
2024/02/05 04:16:05;;;;;;;;;;;;;;;4.96;100.00;97291.48;109250;1253;71190;-66
2024/02/05 04:18:32;;;;;;;;;;;;;;;5.07;100.00;97292.59;109562;1253;60916;-66
2024/02/05 04:21:03;;;;;;;;;;;;;;;5.03;100.00;97289.84;109468;1252;59896;-66
2024/02/05 04:23:31;;;;;;;;;;;;;;;4.78;100.00;97289.73;109196;1258;73821;-65
2024/02/05 04:26:00;;;;;;;;;;;;;;;4.74;100.00;97291.17;109534;1252;71086;-68
2024/02/05 04:28:31;;;;;;;;;;;;;;;5.04;100.00;97283.20;109585;1253;72103;-69
2024/02/05 04:30:59;;;;;;;;;;;;;;;5.06;100.00;97283.13;109522;1253;58865;-69
2024/02/05 04:33:26;;;;;;;;;;;;;;;5.05;100.00;97280.69;109590;1253;61009;-66
2024/02/05 04:35:54;;;;;;;;;;;;;;;4.88;100.00;97274.44;109608;1254;74756;-67
2024/02/05 04:38:21;;;;;;;;;;;;;;;4.83;100.00;97270.00;109593;1252;68440;-69
2024/02/05 04:40:49;;;;;;;;;;;;;;;4.84;100.00;97268.55;109241;1253;72942;-69
2024/02/05 04:43:16;;;;;;;;;;;;;;;5.03;100.00;97270.39;109462;1253;59356;-69
2024/02/05 04:45:44;;;;;;;;;;;;;;;5.28;100.00;97257.48;109243;1254;59438;-69
2024/02/05 04:48:14;;;;;;;;;;;;;;;5.36;100.00;97259.14;109545;1253;74057;-69
2024/02/05 04:50:42;;;;;;;;;;;;;;;5.38;100.00;97251.26;109126;1253;69098;-69
2024/02/05 04:53:09;;;;;;;;;;;;;;;5.44;100.00;97242.96;109387;1253;73141;-68
2024/02/05 04:55:41;;;;;;;;;;;;;;;5.75;100.00;97239.92;109385;1253;60848;-68
2024/02/05 04:58:09;;;;;;;;;;;;;;;5.93;100.00;97236.73;109390;1253;59061;-68
2024/02/05 05:00:37;;;;;;;;;;;;;;;5.98;100.00;97233.20;109385;1253;75762;-68
2024/02/05 05:03:05;;;;;;;;;;;;;;;6.04;100.00;97225.64;109418;1253;68840;-68
2024/02/05 05:05:32;;;;;;;;;;;;;;;5.94;100.00;97223.75;109189;1253;74904;-68
2024/02/05 05:08:00;;;;;;;;;;;;;;;5.80;100.00;97213.27;109083;1259;60874;-69
2024/02/05 05:10:27;;;;;;;;;;;;;;;6.05;100.00;97218.70;109504;1253;62117;-69
2024/02/05 05:12:55;;;;;;;;;;;;;;;5.99;100.00;97203.45;109625;1253;76715;-68
2024/02/05 05:15:22;;;;;;;;;;;;;;;6.11;100.00;97197.92;109594;1253;67678;-69
2024/02/05 05:17:50;;;;;;;;;;;;;;;6.12;100.00;97188.75;109584;1253;71454;-68
2024/02/05 05:20:18;;;;;;;;;;;;;;;6.15;100.00;97193.26;109422;1253;136035;-68
2024/02/05 05:22:45;;;;;;;;;;;;;;;6.24;100.00;97181.33;109435;1253;60772;-67
2024/02/05 05:25:13;;;;;;;;;;;;;;;6.30;100.00;97185.48;109586;1253;72595;-68
2024/02/05 05:27:40;;;;;;;;;;;;;;;6.19;100.00;97178.13;109233;1252;68321;-66
2024/02/05 05:30:08;;;;;;;;;;;;;;;6.37;100.00;97171.64;109562;1253;72926;-67
2024/02/05 05:32:35;;;;;;;;;;;;;;;6.31;100.00;97174.05;109452;1253;60947;-67
2024/02/05 05:35:03;;;;;;;;;;;;;;;6.26;100.00;97165.75;109553;1253;62044;-66
2024/02/05 05:37:33;;;;;;;;;;;;;;;6.27;100.00;97165.51;109590;1253;76012;-67
2024/02/05 05:40:01;;;;;;;;;;;;;;;6.30;100.00;97159.36;109521;1253;69920;-68
2024/02/05 05:42:28;;;;;;;;;;;;;;;5.95;100.00;97154.15;109500;1253;74043;-68
2024/02/05 05:44:56;;;;;;;;;;;;;;;5.86;100.00;97161.02;109201;1254;60962;-68
2024/02/05 05:47:23;;;;;;;;;;;;;;;5.86;100.00;97165.59;109542;1253;59805;-68
2024/02/05 05:49:51;;;;;;;;;;;;;;;5.74;100.00;97193.55;109106;1253;75550;-68
2024/02/05 05:52:19;;;;;;;;;;;;;;;5.85;100.00;97192.55;109295;1256;69166;-67
2024/02/05 05:54:47;;;;;;;;;;;;;;;5.30;100.00;97215.77;109147;1256;72808;-69
2024/02/05 05:57:14;;;;;;;;;;;;;;;4.97;100.00;97177.41;109146;1256;61157;-68
2024/02/05 05:59:42;;;;;;;;;;;;;;;4.65;100.00;97189.17;109199;1255;58897;-69
2024/02/05 06:02:09;;;;;;;;;;;;;;;4.32;100.00;97200.04;109232;1256;76978;-69
2024/02/05 06:04:38;;;;;;;;;;;;;;;4.29;100.00;97190.70;109093;1256;69028;-69
2024/02/05 06:07:08;;;;;;;;;;;;;;;4.12;100.00;97202.00;109028;1257;75020;-68
2024/02/05 06:09:36;;;;;;;;;;;;;;;4.16;100.00;97203.85;109027;1259;59613;-69
2024/02/05 06:12:04;;;;;;;;;;;;;;;4.16;100.00;97206.07;109038;1256;59264;-69
2024/02/05 06:14:32;;;;;;;;;;;;;;;4.01;100.00;97196.08;109183;1256;75469;-68
2024/02/05 06:16:59;;;;;;;;;;;;;;;3.99;100.00;97190.50;109257;1256;69900;-67
2024/02/05 06:19:27;;;;;;;;;;;;;;;3.96;100.00;97194.06;109208;1256;71876;-67
2024/02/05 06:21:54;;;;;;;;;;;;;;;4.03;100.00;97189.42;109183;1256;59998;-67
2024/02/05 06:24:22;;;;;;;;;;;;;;;3.97;100.00;97197.20;109404;1253;60093;-68
2024/02/05 06:26:49;;;;;;;;;;;;;;;3.82;100.00;97203.06;109573;1253;74800;-68
2024/02/05 06:29:17;;;;;;;;;;;;;;;3.85;100.00;97192.70;109572;1253;67321;-67
2024/02/05 06:31:44;;;;;;;;;;;;;;;3.88;100.00;97187.67;109569;1253;72098;-68
2024/02/05 06:34:12;;;;;;;;;;;;;;;3.84;100.00;97180.02;109525;1254;61623;-66
2024/02/05 06:36:40;;;;;;;;;;;;;;;3.80;100.00;97179.18;109577;1253;60356;-68
2024/02/05 06:39:10;;;;;;;;;;;;;;;3.83;100.00;97177.52;109589;1253;74672;-68
2024/02/05 06:41:38;;;;;;;;;;;;;;;3.67;100.00;97183.70;109590;1253;68713;-68
2024/02/05 06:44:06;;;;;;;;;;;;;;;3.49;100.00;97183.77;109521;1253;75059;-68
2024/02/05 06:46:33;;;;;;;;;;;;;;;3.50;100.00;97174.91;109454;1254;60298;-68
2024/02/05 06:49:01;;;;;;;;;;;;;;;3.33;100.00;97179.84;109489;1253;61065;-68
2024/02/05 06:51:28;;;;;;;;;;;;;;;3.54;100.00;97191.82;109162;1253;75032;-68
2024/02/05 06:53:56;;;;;;;;;;;;;;;3.57;100.00;97190.98;109343;1253;67502;-68
2024/02/05 06:56:23;;;;;;;;;;;;;;;3.59;100.00;97200.64;109396;1253;72885;-68
2024/02/05 06:58:51;;;;;;;;;;;;;;;3.56;100.00;97206.67;109371;1256;63211;-68
2024/02/05 07:01:19;;;;;;;;;;;;;;;3.67;100.00;97200.69;109358;1253;59203;-68
2024/02/05 07:03:46;;;;;;;;;;;;;;;3.73;100.00;97193.73;109391;1253;76172;-68
2024/02/05 07:06:14;;;;;;;;;;;;;;;3.72;100.00;97182.05;109378;1253;68163;-67
2024/02/05 07:08:42;;;;;;;;;;;;;;;3.72;100.00;97188.00;109390;1253;71638;-67
2024/02/05 07:11:09;;;;;;;;;;;;;;;3.70;100.00;97178.55;109413;1252;63247;-68
2024/02/05 07:13:38;;;;;;;;;;;;;;;3.89;100.00;97178.33;109232;1253;61096;-68
2024/02/05 07:16:06;;;;;;;;;;;;;;;3.93;100.00;97181.86;109582;1253;73222;-69
2024/02/05 07:18:34;;;;;;;;;;;;;;;3.86;100.00;97185.64;109626;1252;68913;-69
2024/02/05 07:21:04;;;;;;;;;;;;;;;3.77;100.00;97186.50;109222;1252;72538;-68
2024/02/05 07:23:32;;;;;;;;;;;;;;;3.59;100.00;97181.96;109599;1253;61286;-68
2024/02/05 07:25:59;;;;;;;;;;;;;;;3.49;100.00;97184.13;109480;1252;58893;-69
2024/02/05 07:28:27;;;;;;;;;;;;;;;3.38;100.00;97186.05;109530;1254;73367;-68
2024/02/05 07:30:55;;;;;;;;;;;;;;;3.55;100.00;97182.12;109564;1253;68559;-69
2024/02/05 07:33:22;;;;;;;;;;;;;;;3.55;100.00;97174.16;109581;1253;71410;-69
2024/02/05 07:35:50;;;;;;;;;;;;;;;3.64;100.00;97168.96;109462;1253;62209;-68
2024/02/05 07:38:18;;;;;;;;;;;;;;;3.71;100.00;97170.02;109596;1252;59035;-69
2024/02/05 07:40:46;;;;;;;;;;;;;;;3.74;100.00;97173.09;109476;1254;76428;-69
2024/02/05 07:43:14;;;;;;;;;;;;;;;3.75;100.00;97171.50;109374;1257;67077;-69
2024/02/05 07:45:41;;;;;;;;;;;;;;;3.67;100.00;97168.52;109221;1255;73425;-69
2024/02/05 07:48:09;;;;;;;;;;;;;;;3.72;100.00;97164.11;109233;1257;62538;-69
2024/02/05 07:50:37;;;;;;;;;;;;;;;3.71;100.00;97167.63;109268;1256;59951;-70
2024/02/05 07:53:06;;;;;;;;;;;;;;;3.70;100.00;97176.12;109228;1256;73352;-70
2024/02/05 07:55:33;;;;;;;;;;;;;;;3.66;100.00;97175.43;109225;1255;69052;-70
2024/02/05 07:58:01;;;;;;;;;;;;;;;3.63;100.00;97174.27;109228;1255;71220;-70
2024/02/05 08:00:29;;;;;;;;;;;;;;;3.71;100.00;97174.62;109227;1257;60540;-70
2024/02/05 08:02:56;;;;;;;;;;;;;;;3.67;100.00;97175.85;109064;1255;59623;-70
2024/02/05 08:05:24;;;;;;;;;;;;;;;3.56;100.00;97171.40;109232;1257;72598;-70
2024/02/05 08:07:52;;;;;;;;;;;;;;;3.62;100.00;97159.77;109219;1256;67949;-70
2024/02/05 08:10:19;;;;;;;;;;;;;;;3.62;100.00;97162.17;109206;1256;71881;-70
2024/02/05 08:12:47;;;;;;;;;;;;;;;3.61;100.00;97164.34;109044;1255;62990;-70
2024/02/05 08:15:15;;;;;;;;;;;;;;;3.54;100.00;97160.20;109340;1254;62067;-70
2024/02/05 08:17:42;;;;;;;;;;;;;;;3.44;100.00;97157.98;109474;1254;74755;-70
2024/02/05 08:20:10;;;;;;;;;;;;;;;3.44;100.00;97163.83;109380;1253;68472;-70
2024/02/05 08:22:38;;;;;;;;;;;;;;;3.38;100.00;97146.80;109195;1254;71262;-70
2024/02/05 08:25:06;;;;;;;;;;;;;;;3.49;100.00;97139.73;109481;1254;60684;-70
2024/02/05 08:27:34;;;;;;;;;;;;;;;3.31;100.00;97139.80;109454;1254;60881;-70
2024/02/05 08:30:02;;;;;;;;;;;;;;;3.12;100.00;97136.67;109522;1253;76906;-71
2024/02/05 08:32:30;;;;;;;;;;;;;;;3.30;100.00;97137.05;109474;1253;68574;-70
2024/02/05 08:34:57;;;;;;;;;;;;;;;3.43;100.00;97136.93;109382;1254;73391;-70
2024/02/05 08:37:25;;;;;;;;;;;;;;;3.39;100.00;97127.98;109358;1254;58958;-70
2024/02/05 08:39:54;;;;;;;;;;;;;;;3.53;100.00;97132.14;109122;1254;59824;-70
2024/02/05 08:42:21;;;;;;;;;;;;;;;3.47;100.00;97126.58;109396;1254;74801;-70
2024/02/05 08:44:59;;;;;;;;;;;;;;;3.64;100.00;97121.00;109384;1253;67337;-71
2024/02/05 08:47:31;;;;;;;;;;;;;;;3.53;100.00;97130.83;109410;1253;72509;-71
2024/02/05 08:49:59;;;;;;;;;;;;;;;3.51;100.00;97150.99;109425;1254;60834;-70
2024/02/05 08:52:27;;;;;;;;;;;;;;;3.44;100.00;97158.09;109468;1253;60293;-71
2024/02/05 08:54:55;;;;;;;;;;;;;;;3.23;100.00;97159.16;109438;1254;74667;-70
2024/02/05 08:57:22;;;;;;;;;;;;;;;3.17;100.00;97162.66;109312;1254;67822;-70
2024/02/05 08:59:50;;;;;;;;;;;;;;;3.20;100.00;97168.70;109298;1254;73111;-70
2024/02/05 09:02:18;;;;;;;;;;;;;;;3.20;100.00;97166.89;109135;1256;61003;-70
2024/02/05 09:04:46;;;;;;;;;;;;;;;3.15;100.00;97159.00;109292;1254;59846;-70
2024/02/05 09:07:14;;;;;;;;;;;;;;;3.32;100.00;97155.71;109316;1254;73935;-70
2024/02/05 09:09:42;;;;;;;;;;;;;;;3.34;100.00;97154.97;109306;1254;68914;-70
2024/02/05 09:12:09;;;;;;;;;;;;;;;3.27;100.00;97157.24;109295;1254;73269;-70
2024/02/05 09:14:37;;;;;;;;;;;;;;;3.26;100.00;97153.42;109293;1256;60974;-70
2024/02/05 09:17:05;;;;;;;;;;;;;;;3.27;100.00;97153.86;109390;1254;60236;-70
2024/02/05 09:19:33;;;;;;;;;;;;;;;3.66;100.00;97153.56;109418;1255;74779;-71
2024/02/05 09:22:00;;;;;;;;;;;;;;;3.41;100.00;97146.00;109372;1254;68901;-71
2024/02/05 09:24:28;;;;;;;;;;;;;;;3.62;100.00;97146.25;109282;1254;74016;-70
2024/02/05 09:26:56;;;;;;;;;;;;;;;4.02;100.00;97143.98;109418;1254;60592;-71
2024/02/05 09:29:23;;;;;;;;;;;;;;;4.09;100.00;97144.92;109596;1252;61191;-70
2024/02/05 09:31:51;;;;;;;;;;;;;;;4.14;100.00;97149.21;109565;1253;75491;-71
2024/02/05 09:34:20;;;;;;;;;;;;;;;4.23;100.00;97147.16;109604;1252;70649;-71
2024/02/05 09:36:47;;;;;;;;;;;;;;;4.07;100.00;97141.96;109574;1253;71586;-71
2024/02/05 09:39:15;;;;;;;;;;;;;;;3.80;100.00;97136.29;109604;1253;60989;-71
2024/02/05 09:41:43;;;;;;;;;;;;;;;4.27;100.00;97131.05;109596;1253;60076;-70
2024/02/05 09:44:11;;;;;;;;;;;;;;;4.23;100.00;97129.16;109611;1254;76997;-70
2024/02/05 09:46:39;;;;;;;;;;;;;;;4.39;100.00;97132.23;109614;1253;67416;-70
2024/02/05 09:49:07;;;;;;;;;;;;;;;4.26;100.00;97131.17;109610;1253;71482;-70
2024/02/05 09:51:36;;;;;;;;;;;;;;;4.33;100.00;97125.83;109472;1256;59995;-70
2024/02/05 09:54:04;;;;;;;;;;;;;;;4.65;100.00;97120.41;109456;1256;59038;-71
2024/02/05 09:56:44;;;;;;;;;;;;;;;4.79;100.00;97105.13;109594;1254;74013;-71
2024/02/05 09:59:12;;;;;;;;;;;;;;;4.64;100.00;97103.89;109276;1253;69870;-71
2024/02/05 10:01:39;;;;;;;;;;;;;;;4.51;100.00;97110.33;109560;1254;70752;-71
2024/02/05 10:04:08;;;;;;;;;;;;;;;4.36;100.00;97117.74;109462;1254;62172;-71
2024/02/05 10:06:37;;;;;;;;;;;;;;;4.45;100.00;97115.79;109462;1253;59505;-70
2024/02/05 10:09:06;;;;;;;;;;;;;;;4.48;100.00;97119.59;109498;1252;74756;-71
2024/02/05 10:11:35;;;;;;;;;;;;;;;4.28;100.00;97105.45;109537;1252;69445;-71
2024/02/05 10:14:03;;;;;;;;;;;;;;;4.39;100.00;97111.27;109427;1254;72767;-71
2024/02/05 10:16:31;;;;;;;;;;;;;;;4.66;100.00;97104.89;109301;1256;61366;-71
2024/02/05 10:18:58;;;;;;;;;;;;;;;4.25;100.00;97095.64;109301;1254;58947;-71
2024/02/05 10:21:26;;;;;;;;;;;;;;;4.29;100.00;97072.52;109307;1254;73792;-71
2024/02/05 10:23:54;;;;;;;;;;;;;;;4.26;100.00;97072.38;109291;1254;70662;-72
2024/02/05 10:26:25;;;;;;;;;;;;;;;4.24;100.00;97069.67;109055;1258;72826;-71
2024/02/05 10:28:52;;;;;;;;;;;;;;;4.14;100.00;97067.81;109052;1258;60061;-71
2024/02/05 10:31:20;;;;;;;;;;;;;;;4.68;100.00;97070.54;109000;1260;60005;-71
2024/02/05 10:33:48;;;;;;;;;;;;;;;4.78;100.00;97069.88;108750;1260;76985;-70
2024/02/05 10:36:18;;;;;;;;;;;;;;;5.05;100.00;97075.33;108963;1260;67566;-70
2024/02/05 10:38:46;;;;;;;;;;;;;;;5.24;100.00;97080.48;109022;1260;74271;-70
2024/02/05 10:41:14;;;;;;;;;;;;;;;4.96;100.00;97093.09;108978;1265;63031;-70
2024/02/05 10:43:46;;;;;;;;;;;;;;;4.87;100.00;97085.15;109004;1260;58968;-70
2024/02/05 10:46:13;;;;;;;;;;;;;;;4.73;100.00;97073.44;109063;1259;75296;-71
2024/02/05 10:48:44;;;;;;;;;;;;;;;4.78;100.00;97061.87;108984;1260;67789;-70
2024/02/05 10:51:12;;;;;;;;;;;;;;;4.92;100.00;97047.40;109016;1258;74986;-70
2024/02/05 10:53:41;;;;;;;;;;;;;;;5.19;100.00;97050.20;108993;1259;61323;-70
2024/02/05 10:56:08;;;;;;;;;;;;;;;5.34;100.00;97042.67;108997;1258;59097;-70
2024/02/05 10:58:38;;;;;;;;;;;;;;;5.28;100.00;97045.55;109025;1256;75774;-70
2024/02/05 11:01:05;;;;;;;;;;;;;;;5.28;100.00;97050.45;109090;1262;69687;-70
2024/02/05 11:03:37;;;;;;;;;;;;;;;5.32;100.00;97065.57;109078;1256;72844;-70
2024/02/05 11:06:05;;;;;;;;;;;;;;;5.33;99.78;97079.82;109107;1261;60005;-71
2024/02/05 11:08:34;;;;;;;;;;;;;;;5.40;99.51;97080.02;109188;1254;62142;-71
2024/02/05 11:11:06;;;;;;;;;;;;;;;5.33;99.48;97085.89;109406;1253;75001;-71
2024/02/05 11:13:59;;;;;;;;;;;;;;;5.09;99.97;97085.66;109300;1259;69121;-72
2024/02/05 11:16:27;;;;;;;;;;;;;;;4.88;100.00;97093.26;108899;1261;73501;-71
2024/02/05 11:18:55;;;;;;;;;;;;;;;4.50;100.00;97093.66;108837;1260;63101;-72
2024/02/05 11:21:24;;;;;;;;;;;;;;;4.62;100.00;97090.77;108735;1261;60881;-69
2024/02/05 11:23:51;;;;;;;;;;;;;;;5.13;100.00;97088.55;108834;1261;74466;-70
2024/02/05 11:26:19;;;;;;;;;;;;;;;5.10;100.00;97090.98;108841;1261;71109;-71
2024/02/05 11:28:50;;;;;;;;;;;;;;;5.20;99.93;97114.19;108850;1261;74015;-71
2024/02/05 11:31:17;;;;;;;;;;;;;;;5.00;99.96;97111.20;108835;1262;60540;-71
2024/02/05 11:33:45;;;;;;;;;;;;;;;5.03;99.62;97108.79;108826;1261;59132;-70
2024/02/05 11:36:13;;;;;;;;;;;;;;;5.31;98.23;97105.69;108856;1262;73792;-71
2024/02/05 11:38:41;;;;;;;;;;;;;;;5.22;98.86;97102.95;108853;1260;70631;-71
2024/02/05 11:41:08;;;;;;;;;;;;;;;5.22;98.39;97093.48;108840;1262;71402;-71
2024/02/05 11:43:36;;;;;;;;;;;;;;;5.37;98.10;97099.73;108823;1261;59361;-70
2024/02/05 11:46:04;;;;;;;;;;;;;;;5.51;97.14;97097.05;108847;1261;60150;-71
2024/02/05 11:48:32;;;;;;;;;;;;;;;6.03;94.68;97088.91;108850;1262;76651;-71
2024/02/05 11:51:00;;;;;;;;;;;;;;;6.17;93.58;97101.88;108840;1261;67823;-71
2024/02/05 11:53:27;;;;;;;;;;;;;;;6.22;94.00;97107.66;109077;1253;74581;-70
2024/02/05 11:55:55;;;;;;;;;;;;;;;6.79;90.42;97116.90;109390;1254;63547;-70
2024/02/05 11:58:22;;;;;;;;;;;;;;;6.96;87.42;97118.36;109444;1254;61196;-69
2024/02/05 12:00:52;;;;;;;;;;;;;;;7.22;85.66;97122.17;109364;1254;74911;-69
2024/02/05 12:03:21;;;;;;;;;;;;;;;6.97;85.25;97120.94;109310;1254;67812;-68
2024/02/05 12:05:48;;;;;;;;;;;;;;;6.85;86.24;97119.84;109465;1258;70619;-69
2024/02/05 12:08:16;;;;;;;;;;;;;;;6.62;87.37;97125.48;109441;1254;59811;-69
2024/02/05 12:10:43;;;;;;;;;;;;;;;6.37;88.14;97135.46;109311;1253;61879;-67
2024/02/05 12:13:15;;;;;;;;;;;;;;;6.35;88.27;97121.42;109640;1253;74790;-67
2024/02/05 12:15:43;;;;;;;;;;;;;;;6.91;86.12;97134.95;109259;1260;69025;-66
2024/02/05 12:18:11;;;;;;;;;;;;;;;7.47;83.06;97140.49;109466;1254;74587;-68
2024/02/05 12:20:39;;;;;;;;;;;;;;;7.52;81.46;97142.98;109300;1253;63159;-68
2024/02/05 12:23:06;;;;;;;;;;;;;;;7.37;80.53;97144.98;109615;1254;60341;-68
2024/02/05 12:25:34;;;;;;;;;;;;;;;7.11;81.52;97144.32;109646;1253;74618;-68
2024/02/05 12:28:12;;;;;;;;;;;;;;;6.93;83.10;97145.02;109628;1254;68882;-68
2024/02/05 12:30:40;;;;;;;;;;;;;;;6.86;82.96;97144.63;109330;1254;73537;-67
2024/02/05 12:33:08;;;;;;;;;;;;;;;6.40;84.53;97144.43;109599;1257;59378;-68
2024/02/05 12:35:35;;;;;;;;;;;;;;;6.41;84.26;97138.30;109571;1254;59026;-69
2024/02/05 12:38:03;;;;;;;;;;;;;;;6.42;84.61;97144.14;109629;1253;74626;-68
2024/02/05 12:40:30;;;;;;;;;;;;;;;6.54;83.57;97147.09;109620;1253;69489;-68
2024/02/05 12:43:02;;;;;;;;;;;;;;;6.56;83.31;97144.61;109608;1252;72991;-69
2024/02/05 12:45:30;;;;;;;;;;;;;;;6.74;82.72;97154.34;109580;1254;60084;-68